Time;durP1;ratioP1;P1;durP2;ratioP2;P2;SDS_P1;SDS_P2;PMS_P1;PMS_P2;Temp;Humidity;BMP_temperature;BMP_pressure;BME280_temperature;BME280_humidity;BME280_pressure;Samples;Min_cycle;Max_cycle;Signal;HPM_P1;HPM_P2
2023/02/03 00:00:34;;;;;;;5.88;3.28;;;;;;;;;;6182705;23;20017;-85
2023/02/03 00:03:05;;;;;;;7.40;2.90;;;;;;;;;;6190784;23;20020;-85
2023/02/03 00:05:35;;;;;;;4.82;3.10;;;;;;;;;;6158178;23;20020;-85
2023/02/03 00:08:04;;;;;;;6.75;2.95;;;;;;;;;;6184866;23;20017;-85
2023/02/03 00:10:37;;;;;;;4.85;3.47;;;;;;;;;;6181965;23;20021;-85
2023/02/03 00:13:09;;;;;;;4.28;3.38;;;;;;;;;;6191434;23;20013;-85
2023/02/03 00:15:36;;;;;;;8.27;4.35;;;;;;;;;;6192848;23;20340;-85
2023/02/03 00:18:07;;;;;;;6.45;3.38;;;;;;;;;;6158202;23;20021;-85
2023/02/03 00:20:34;;;;;;;4.07;2.55;;;;;;;;;;6194229;23;20445;-85
2023/02/03 00:23:05;;;;;;;10.07;4.38;;;;;;;;;;6183045;23;20036;-85
2023/02/03 00:25:33;;;;;;;4.68;2.78;;;;;;;;;;6194263;23;20032;-85
2023/02/03 00:28:03;;;;;;;3.20;2.65;;;;;;;;;;6185027;23;20020;-86
2023/02/03 00:30:30;;;;;;;4.32;3.53;;;;;;;;;;6196268;23;20013;-85
2023/02/03 00:33:00;;;;;;;6.38;3.15;;;;;;;;;;6188408;23;20024;-85
2023/02/03 00:35:28;;;;;;;7.00;3.92;;;;;;;;;;6163020;23;20023;-85
2023/02/03 00:37:57;;;;;;;5.03;2.75;;;;;;;;;;6184532;23;20362;-85
2023/02/03 00:40:28;;;;;;;6.95;3.58;;;;;;;;;;6182221;23;20350;-86
2023/02/03 00:42:56;;;;;;;4.15;3.08;;;;;;;;;;6183586;23;20016;-85
2023/02/03 00:45:26;;;;;;;4.72;3.35;;;;;;;;;;6157756;23;20454;-85
2023/02/03 00:47:53;;;;;;;8.48;3.88;;;;;;;;;;6157877;23;20353;-86
2023/02/03 00:50:21;;;;;;;3.88;2.90;;;;;;;;;;6182668;23;20020;-86
2023/02/03 00:52:49;;;;;;;7.47;3.83;;;;;;;;;;6192434;23;20013;-85
2023/02/03 00:55:17;;;;;;;8.25;4.32;;;;;;;;;;6182797;23;20024;-86
2023/02/03 00:57:44;;;;;;;3.63;2.88;;;;;;;;;;6157966;23;20505;-86
2023/02/03 01:00:14;;;;;;;5.47;3.33;;;;;;;;;;6157357;23;20032;-85
2023/02/03 01:02:44;;;;;;;8.55;4.88;;;;;;;;;;6192175;23;20012;-85
2023/02/03 01:05:11;;;;;;;5.80;3.63;;;;;;;;;;6183209;23;20009;-85
2023/02/03 01:07:39;;;;;;;5.88;3.45;;;;;;;;;;6193163;23;20381;-85
2023/02/03 01:10:10;;;;;;;3.78;3.05;;;;;;;;;;6182952;23;20013;-86
2023/02/03 01:12:40;;;;;;;5.43;2.63;;;;;;;;;;6191243;23;20017;-85
2023/02/03 01:15:08;;;;;;;9.60;4.15;;;;;;;;;;6181502;23;20009;-85
2023/02/03 01:17:38;;;;;;;3.83;3.53;;;;;;;;;;6157496;23;20492;-85
2023/02/03 01:20:06;;;;;;;9.15;4.13;;;;;;;;;;6157438;23;20021;-86
2023/02/03 01:22:33;;;;;;;4.43;2.97;;;;;;;;;;6182550;23;20020;-85
2023/02/03 01:25:00;;;;;;;6.07;3.20;;;;;;;;;;6193090;23;20017;-85
2023/02/03 01:27:29;;;;;;;10.38;2.83;;;;;;;;;;6183315;23;20013;-85
2023/02/03 01:29:56;;;;;;;4.15;3.72;;;;;;;;;;6156818;23;20024;-85
2023/02/03 01:32:23;;;;;;;4.60;3.25;;;;;;;;;;6183596;23;20020;-85
2023/02/03 01:34:51;;;;;;;6.95;4.00;;;;;;;;;;6182648;23;20024;-85
2023/02/03 01:37:24;;;;;;;8.20;3.72;;;;;;;;;;6182210;23;20013;-85
2023/02/03 01:39:51;;;;;;;7.13;3.03;;;;;;;;;;6182903;23;20013;-85
2023/02/03 01:42:19;;;;;;;4.60;3.47;;;;;;;;;;6158229;23;20017;-85
2023/02/03 01:44:50;;;;;;;5.18;4.00;;;;;;;;;;6182955;23;20013;-85
2023/02/03 01:47:24;;;;;;;3.97;3.55;;;;;;;;;;6181717;23;20013;-85
2023/02/03 01:49:56;;;;;;;6.38;2.65;;;;;;;;;;6191286;23;20013;-86
2023/02/03 01:52:23;;;;;;;3.70;3.08;;;;;;;;;;6194234;23;20013;-85
2023/02/03 01:54:52;;;;;;;5.25;3.00;;;;;;;;;;6182272;23;20020;-86
2023/02/03 01:57:22;;;;;;;6.53;4.65;;;;;;;;;;6182741;23;20013;-85
2023/02/03 01:59:54;;;;;;;6.10;2.92;;;;;;;;;;6157125;23;20028;-85
2023/02/03 02:02:23;;;;;;;5.85;3.55;;;;;;;;;;6182198;23;20013;-85
2023/02/03 02:05:00;;;;;;;3.33;2.67;;;;;;;;;;6183415;23;20028;-85
2023/02/03 02:07:27;;;;;;;4.68;3.38;;;;;;;;;;6158001;23;20451;-85
2023/02/03 02:09:55;;;;;;;2.83;2.45;;;;;;;;;;6190531;23;20036;-85
2023/02/03 02:12:25;;;;;;;3.33;2.60;;;;;;;;;;6182547;23;20017;-86
2023/02/03 02:14:53;;;;;;;7.90;3.92;;;;;;;;;;6181301;23;20043;-86
2023/02/03 02:17:44;;;;;;;9.02;2.97;;;;;;;;;;6157811;23;20028;-86
2023/02/03 02:20:30;;;;;;;8.45;3.42;;;;;;;;;;6156683;23;20017;-85
2023/02/03 02:23:38;;;;;;;9.98;2.38;;;;;;;;;;6157052;23;20032;-85
2023/02/03 02:26:41;;;;;;;3.28;2.60;;;;;;;;;;6137895;23;20020;-86
2023/02/03 02:29:25;;;;;;;4.97;3.03;;;;;;;;;;6151057;23;20331;-85
2023/02/03 02:31:58;;;;;;;6.85;2.35;;;;;;;;;;6192134;23;20024;-85
2023/02/03 02:34:39;;;;;;;2.92;2.45;;;;;;;;;;6183793;23;20036;-85
2023/02/03 02:37:18;;;;;;;4.00;3.17;;;;;;;;;;6190507;23;20420;-86
2023/02/03 02:39:48;;;;;;;5.28;3.17;;;;;;;;;;6156211;23;20017;-85
2023/02/03 02:42:20;;;;;;;4.15;3.17;;;;;;;;;;6192757;23;20013;-86
2023/02/03 02:44:50;;;;;;;4.97;3.75;;;;;;;;;;6182210;23;20013;-85
2023/02/03 02:47:24;;;;;;;2.78;2.40;;;;;;;;;;6191892;23;20009;-85
2023/02/03 02:49:58;;;;;;;3.53;2.67;;;;;;;;;;6190335;23;20017;-86
2023/02/03 02:52:30;;;;;;;4.95;2.83;;;;;;;;;;6190786;23;20457;-85
2023/02/03 02:55:02;;;;;;;3.53;2.90;;;;;;;;;;6157092;23;20021;-85
2023/02/03 02:57:30;;;;;;;5.45;2.40;;;;;;;;;;6182302;23;20349;-85
2023/02/03 03:00:02;;;;;;;4.72;2.70;;;;;;;;;;6181528;23;20013;-85
2023/02/03 03:02:34;;;;;;;4.28;2.58;;;;;;;;;;6191357;23;20013;-84
2023/02/03 03:05:09;;;;;;;3.67;2.55;;;;;;;;;;6179517;23;20028;-86
2023/02/03 03:07:44;;;;;;;5.15;3.85;;;;;;;;;;6191853;23;20032;-85
2023/02/03 03:10:17;;;;;;;2.95;2.65;;;;;;;;;;6179528;23;20025;-86
2023/02/03 03:12:51;;;;;;;4.00;3.60;;;;;;;;;;6189085;23;20017;-86
2023/02/03 03:15:21;;;;;;;3.20;2.63;;;;;;;;;;6154860;23;20021;-85
2023/02/03 03:17:54;;;;;;;7.68;3.65;;;;;;;;;;6155858;23;20500;-85
2023/02/03 03:20:24;;;;;;;3.83;2.97;;;;;;;;;;6154684;23;20021;-86
2023/02/03 03:22:55;;;;;;;4.05;2.72;;;;;;;;;;6180590;23;20020;-85
2023/02/03 03:25:28;;;;;;;4.47;2.92;;;;;;;;;;6155787;23;20020;-86
2023/02/03 03:27:59;;;;;;;4.47;3.28;;;;;;;;;;6191895;23;20013;-85
2023/02/03 03:30:32;;;;;;;3.88;3.00;;;;;;;;;;6180459;23;20017;-86
2023/02/03 03:33:01;;;;;;;3.50;3.20;;;;;;;;;;6182336;23;20013;-86
2023/02/03 03:35:35;;;;;;;;;;;;;;;;;;6182038;23;20036;-85
2023/02/03 03:38:07;;;;;;;3.72;2.95;;;;;;;;;;6183323;23;19931;-86
2023/02/03 03:40:38;;;;;;;4.90;3.90;;;;;;;;;;6179913;23;20021;-86
2023/02/03 03:43:08;;;;;;;6.45;3.65;;;;;;;;;;6190861;23;20036;-86
2023/02/03 03:45:41;;;;;;;5.35;3.00;;;;;;;;;;6191723;23;20025;-86
2023/02/03 03:48:12;;;;;;;4.25;3.33;;;;;;;;;;6192689;23;20341;-86
2023/02/03 03:50:42;;;;;;;10.50;3.00;;;;;;;;;;6191654;23;20020;-86
2023/02/03 03:53:10;;;;;;;5.65;2.75;;;;;;;;;;6182892;23;20020;-86
2023/02/03 03:55:39;;;;;;;5.85;3.42;;;;;;;;;;6181383;23;20017;-86
2023/02/03 03:58:11;;;;;;;4.10;3.33;;;;;;;;;;6155741;23;20457;-86
2023/02/03 04:00:41;;;;;;;4.18;3.30;;;;;;;;;;6192312;23;20057;-86
2023/02/03 04:03:12;;;;;;;9.05;3.78;;;;;;;;;;6180928;23;20017;-86
2023/02/03 04:05:40;;;;;;;5.55;3.92;;;;;;;;;;6183500;23;20021;-86
2023/02/03 04:08:07;;;;;;;11.85;3.83;;;;;;;;;;6183279;23;20060;-86
2023/02/03 04:10:39;;;;;;;3.42;3.10;;;;;;;;;;6192442;23;20016;-86
2023/02/03 04:13:10;;;;;;;4.75;3.78;;;;;;;;;;6180317;23;20024;-82
2023/02/03 04:15:40;;;;;;;3.65;2.88;;;;;;;;;;6079663;23;20029;-84
2023/02/03 04:18:12;;;;;;;5.88;3.75;;;;;;;;;;6047454;23;20018;-83
2023/02/03 04:20:39;;;;;;;6.70;4.18;;;;;;;;;;6096688;23;20030;-83
2023/02/03 04:23:07;;;;;;;4.50;3.80;;;;;;;;;;6073402;23;20014;-84
2023/02/03 04:25:34;;;;;;;3.85;3.22;;;;;;;;;;6097077;23;20014;-84
2023/02/03 04:28:01;;;;;;;8.40;4.00;;;;;;;;;;6046825;23;20175;-83
2023/02/03 04:30:31;;;;;;;6.30;4.90;;;;;;;;;;6070354;23;20025;-83
2023/02/03 04:32:58;;;;;;;7.25;3.35;;;;;;;;;;6071078;23;20018;-83
2023/02/03 04:35:32;;;;;;;4.57;3.70;;;;;;;;;;6047369;23;20361;-83
2023/02/03 04:38:01;;;;;;;5.07;3.47;;;;;;;;;;6094252;23;20038;-83
2023/02/03 04:40:31;;;;;;;5.40;3.70;;;;;;;;;;6069986;23;20358;-83
2023/02/03 04:42:58;;;;;;;7.68;4.07;;;;;;;;;;6045887;23;20023;-83
2023/02/03 04:45:26;;;;;;;6.38;4.28;;;;;;;;;;6079102;23;20015;-83
2023/02/03 04:47:55;;;;;;;10.65;4.45;;;;;;;;;;6071611;23;20335;-83
2023/02/03 04:50:25;;;;;;;12.95;5.57;;;;;;;;;;6094996;23;20029;-83
2023/02/03 04:52:53;;;;;;;5.45;3.90;;;;;;;;;;6071278;23;20510;-83
2023/02/03 04:55:20;;;;;;;9.38;4.30;;;;;;;;;;6095022;23;20019;-83
2023/02/03 04:57:55;;;;;;;6.88;3.67;;;;;;;;;;6096073;23;20329;-83
2023/02/03 05:00:25;;;;;;;7.68;4.32;;;;;;;;;;6069701;23;20355;-83
2023/02/03 05:02:52;;;;;;;7.10;4.22;;;;;;;;;;6096508;23;20025;-83
2023/02/03 05:05:21;;;;;;;5.18;3.88;;;;;;;;;;6095048;23;20015;-83
2023/02/03 05:07:52;;;;;;;6.53;4.93;;;;;;;;;;6069527;23;20360;-82
2023/02/03 05:10:22;;;;;;;6.40;4.35;;;;;;;;;;6069468;23;20478;-82
2023/02/03 05:12:49;;;;;;;9.27;4.93;;;;;;;;;;6070587;23;20014;-82
2023/02/03 05:15:19;;;;;;;7.38;5.13;;;;;;;;;;6118419;23;20018;-82
2023/02/03 05:17:48;;;;;;;6.45;3.83;;;;;;;;;;6098836;23;20025;-82
2023/02/03 05:20:21;;;;;;;6.40;4.25;;;;;;;;;;6123053;23;20022;-83
2023/02/03 05:22:48;;;;;;;6.22;4.30;;;;;;;;;;6123213;23;20018;-82
2023/02/03 05:25:21;;;;;;;12.73;4.30;;;;;;;;;;6134216;23;20578;-83
2023/02/03 05:27:48;;;;;;;8.32;4.53;;;;;;;;;;6098454;23;20354;-83
2023/02/03 05:30:15;;;;;;;7.65;4.38;;;;;;;;;;6095514;23;20018;-83
2023/02/03 05:32:43;;;;;;;7.45;4.18;;;;;;;;;;6123514;23;20018;-82
2023/02/03 05:35:10;;;;;;;5.30;4.25;;;;;;;;;;6124542;23;20021;-82
2023/02/03 05:37:37;;;;;;;6.57;3.60;;;;;;;;;;6122851;23;20362;-83
2023/02/03 05:42:56;;;;;;;5.88;4.55;;;;;;;;;;6134343;23;20032;-83
2023/02/03 05:45:24;;;;;;;5.75;4.18;;;;;;;;;;6123842;23;20481;-83
2023/02/03 05:47:53;;;;;;;4.43;4.00;;;;;;;;;;6123467;23;20332;-84
2023/02/03 05:50:21;;;;;;;5.32;4.38;;;;;;;;;;6122545;23;20014;-83
2023/02/03 05:52:51;;;;;;;7.30;4.05;;;;;;;;;;6132680;23;20018;-83
2023/02/03 05:55:20;;;;;;;5.93;4.20;;;;;;;;;;6122666;23;20029;-84
2023/02/03 05:57:50;;;;;;;5.95;5.28;;;;;;;;;;6123593;23;20025;-84
2023/02/03 06:00:20;;;;;;;7.40;4.30;;;;;;;;;;6121259;23;20014;-84
2023/02/03 06:02:51;;;;;;;12.98;5.03;;;;;;;;;;6124853;23;20018;-83
2023/02/03 06:05:18;;;;;;;5.85;4.80;;;;;;;;;;6124257;23;20014;-84
2023/02/03 06:07:50;;;;;;;7.18;4.18;;;;;;;;;;6123560;23;20026;-83
2023/02/03 06:10:20;;;;;;;5.13;4.55;;;;;;;;;;6121695;23;20021;-84
2023/02/03 06:12:50;;;;;;;5.88;4.40;;;;;;;;;;6124617;23;20018;-84
2023/02/03 06:15:19;;;;;;;5.00;3.95;;;;;;;;;;6097793;23;20014;-84
2023/02/03 06:17:47;;;;;;;8.07;4.20;;;;;;;;;;6094662;23;20015;-84
2023/02/03 06:20:16;;;;;;;10.48;3.88;;;;;;;;;;6094953;23;20022;-83
2023/02/03 06:22:45;;;;;;;7.15;4.93;;;;;;;;;;6104961;23;20014;-83
2023/02/03 06:25:13;;;;;;;6.50;3.88;;;;;;;;;;6094882;23;20359;-83
2023/02/03 06:27:41;;;;;;;7.28;5.45;;;;;;;;;;6069341;23;20017;-84
2023/02/03 06:30:10;;;;;;;5.88;3.55;;;;;;;;;;6095229;23;20037;-84
2023/02/03 06:32:38;;;;;;;6.93;4.38;;;;;;;;;;6095265;23;20022;-83
2023/02/03 06:35:08;;;;;;;6.82;4.07;;;;;;;;;;6095977;23;20018;-83
2023/02/03 06:37:36;;;;;;;9.35;5.10;;;;;;;;;;6045109;23;20026;-83
2023/02/03 06:40:07;;;;;;;5.13;4.53;;;;;;;;;;6094986;23;20015;-84
2023/02/03 06:42:36;;;;;;;5.20;4.63;;;;;;;;;;6095018;23;20018;-83
2023/02/03 06:45:09;;;;;;;7.93;4.53;;;;;;;;;;6046180;23;20026;-84
2023/02/03 06:47:40;;;;;;;4.82;3.65;;;;;;;;;;6065659;23;20017;-83
2023/02/03 06:50:10;;;;;;;3.97;3.35;;;;;;;;;;6068594;23;20018;-83
2023/02/03 06:52:37;;;;;;;4.60;3.67;;;;;;;;;;6045782;23;20026;-83
2023/02/03 06:55:06;;;;;;;7.20;4.25;;;;;;;;;;6044789;23;20034;-83
2023/02/03 06:57:33;;;;;;;9.43;4.90;;;;;;;;;;6078721;23;20010;-83
2023/02/03 07:00:03;;;;;;;4.90;4.18;;;;;;;;;;6079566;23;20332;-84
2023/02/03 07:02:33;;;;;;;9.68;5.15;;;;;;;;;;6045076;23;20018;-84
2023/02/03 07:05:04;;;;;;;5.78;4.45;;;;;;;;;;6069723;23;20025;-84
2023/02/03 07:07:34;;;;;;;5.25;4.78;;;;;;;;;;6069052;23;20023;-83
2023/02/03 07:10:03;;;;;;;5.25;4.35;;;;;;;;;;6044806;23;20027;-83
2023/02/03 07:12:31;;;;;;;6.18;5.10;;;;;;;;;;6069562;23;20022;-83
2023/02/03 07:15:01;;;;;;;9.35;4.60;;;;;;;;;;6094003;23;20351;-83
2023/02/03 07:17:28;;;;;;;6.03;3.90;;;;;;;;;;6094907;23;20482;-83
2023/02/03 07:19:55;;;;;;;5.63;5.00;;;;;;;;;;6093781;23;20018;-82
2023/02/03 07:22:24;;;;;;;3.88;3.30;;;;;;;;;;6095291;23;20025;-83
2023/02/03 07:24:51;;;;;;;5.30;4.25;;;;;;;;;;6071072;23;20014;-83
2023/02/03 07:27:19;;;;;;;4.47;4.05;;;;;;;;;;6045400;23;20490;-83
2023/02/03 07:29:48;;;;;;;5.90;4.75;;;;;;;;;;6078179;23;20011;-83
2023/02/03 07:32:16;;;;;;;8.85;5.22;;;;;;;;;;6095270;23;20018;-83
2023/02/03 07:34:43;;;;;;;7.63;4.43;;;;;;;;;;6068233;23;20022;-83
2023/02/03 07:37:15;;;;;;;9.98;4.78;;;;;;;;;;6101850;23;20347;-83
2023/02/03 07:39:46;;;;;;;5.32;4.63;;;;;;;;;;6095658;23;20042;-80
2023/02/03 07:42:15;;;;;;;5.88;4.20;;;;;;;;;;6079380;23;20045;-82
2023/02/03 07:44:47;;;;;;;11.75;5.05;;;;;;;;;;6044450;23;20359;-82
2023/02/03 07:47:16;;;;;;;5.32;4.10;;;;;;;;;;6044971;23;20034;-82
2023/02/03 07:49:46;;;;;;;7.43;3.65;;;;;;;;;;6095189;23;20021;-82
2023/02/03 07:52:13;;;;;;;7.05;4.63;;;;;;;;;;6047008;23;20014;-82
2023/02/03 07:54:43;;;;;;;6.05;4.63;;;;;;;;;;6096251;23;20352;-82
2023/02/03 07:57:11;;;;;;;6.18;4.80;;;;;;;;;;6046058;23;20020;-82
2023/02/03 07:59:44;;;;;;;4.53;3.85;;;;;;;;;;6095868;23;20065;-82
2023/02/03 08:02:15;;;;;;;5.10;4.35;;;;;;;;;;6081401;23;20030;-82
2023/02/03 08:04:43;;;;;;;8.98;5.25;;;;;;;;;;6046064;23;20025;-82
2023/02/03 08:07:12;;;;;;;5.65;4.05;;;;;;;;;;6070923;23;20026;-82
2023/02/03 08:09:42;;;;;;;7.07;4.95;;;;;;;;;;6070630;23;20020;-82
2023/02/03 08:12:09;;;;;;;5.15;3.83;;;;;;;;;;6106275;23;20018;-82
2023/02/03 08:14:40;;;;;;;8.73;6.53;;;;;;;;;;6096500;23;20019;-82
2023/02/03 08:17:07;;;;;;;3.85;3.40;;;;;;;;;;6095819;23;20045;-82
2023/02/03 08:19:37;;;;;;;7.25;4.90;;;;;;;;;;6069986;23;20018;-82
2023/02/03 08:22:04;;;;;;;6.18;4.47;;;;;;;;;;6071193;23;20010;-82
2023/02/03 08:24:32;;;;;;;8.27;3.88;;;;;;;;;;6070054;23;20015;-82
2023/02/03 08:27:01;;;;;;;4.68;4.28;;;;;;;;;;6094423;23;20014;-82
2023/02/03 08:29:28;;;;;;;4.93;3.88;;;;;;;;;;6046644;23;20019;-82
2023/02/03 08:31:57;;;;;;;4.85;4.03;;;;;;;;;;6071243;23;20021;-82
2023/02/03 08:34:24;;;;;;;6.18;4.35;;;;;;;;;;6098665;23;20015;-82
2023/02/03 08:36:52;;;;;;;4.88;3.90;;;;;;;;;;6105547;23;20025;-82
2023/02/03 08:39:22;;;;;;;10.20;3.63;;;;;;;;;;6095642;23;20351;-82
2023/02/03 08:41:51;;;;;;;5.90;4.68;;;;;;;;;;6070862;23;20015;-82
2023/02/03 08:44:21;;;;;;;7.93;4.88;;;;;;;;;;6095246;23;20015;-82
2023/02/03 08:46:49;;;;;;;5.65;4.10;;;;;;;;;;6095547;23;20026;-82
2023/02/03 08:49:18;;;;;;;5.75;3.95;;;;;;;;;;6069645;23;20014;-83
2023/02/03 08:51:47;;;;;;;8.60;4.10;;;;;;;;;;6067728;23;20288;-83
2023/02/03 08:54:14;;;;;;;4.25;3.22;;;;;;;;;;6092898;23;20014;-84
2023/02/03 08:56:44;;;;;;;4.82;3.67;;;;;;;;;;6068876;23;20019;-83
2023/02/03 08:59:13;;;;;;;4.30;3.15;;;;;;;;;;6094649;23;20018;-83
2023/02/03 09:01:43;;;;;;;4.40;3.65;;;;;;;;;;6095501;23;20014;-82
2023/02/03 09:04:13;;;;;;;5.73;3.93;;;;;;;;;;6099868;23;20015;-82
2023/02/03 09:06:43;;;;;;;4.28;3.22;;;;;;;;;;6067467;23;20026;-82
2023/02/03 09:09:11;;;;;;;5.53;3.55;;;;;;;;;;6046398;23;20440;-82
2023/02/03 09:11:38;;;;;;;8.05;3.72;;;;;;;;;;6069724;23;20324;-82
2023/02/03 09:14:05;;;;;;;3.30;2.60;;;;;;;;;;6096085;23;20512;-82
2023/02/03 09:16:35;;;;;;;5.68;4.18;;;;;;;;;;6067059;23;20715;-82
2023/02/03 09:19:05;;;;;;;3.85;3.45;;;;;;;;;;6093956;23;20018;-82
2023/02/03 09:21:34;;;;;;;5.88;3.83;;;;;;;;;;6079155;23;20018;-82
2023/02/03 09:24:04;;;;;;;4.30;3.70;;;;;;;;;;6095507;23;20026;-82
2023/02/03 09:26:31;;;;;;;7.60;3.67;;;;;;;;;;6105303;23;20033;-82
2023/02/03 09:28:59;;;;;;;3.17;2.50;;;;;;;;;;6069779;23;20018;-82
2023/02/03 09:31:26;;;;;;;4.75;3.35;;;;;;;;;;6069860;23;20022;-82
2023/02/03 09:33:53;;;;;;;4.07;3.40;;;;;;;;;;6095489;23;20022;-82
2023/02/03 09:36:20;;;;;;;4.32;3.40;;;;;;;;;;6068235;23;20367;-82
2023/02/03 09:38:50;;;;;;;4.25;3.50;;;;;;;;;;6094130;23;20014;-84
2023/02/03 09:41:30;;;;;;;4.28;3.33;;;;;;;;;;6078423;23;20010;-83
2023/02/03 09:44:03;;;;;;;4.93;2.67;;;;;;;;;;6069612;23;20019;-82
2023/02/03 09:46:34;;;;;;;5.13;3.47;;;;;;;;;;6068543;23;20041;-82
2023/02/03 09:49:05;;;;;;;4.10;3.03;;;;;;;;;;6095175;23;20021;-82
2023/02/03 09:51:37;;;;;;;5.15;3.40;;;;;;;;;;6105003;23;20019;-83
2023/02/03 09:54:07;;;;;;;4.53;3.70;;;;;;;;;;6100758;23;20022;-83
2023/02/03 09:56:39;;;;;;;6.50;3.88;;;;;;;;;;6079886;23;20018;-83
2023/02/03 09:59:10;;;;;;;5.82;3.85;;;;;;;;;;6045840;23;20029;-83
2023/02/03 10:01:41;;;;;;;3.40;2.65;;;;;;;;;;6094944;23;20014;-83
2023/02/03 10:04:26;;;;;;;5.43;3.00;;;;;;;;;;6045379;23;20055;-83
2023/02/03 10:07:01;;;;;;;10.32;3.42;;;;;;;;;;6103690;23;20026;-83
2023/02/03 10:09:42;;;;;;;6.40;3.92;;;;;;;;;;6104172;23;20022;-83
2023/02/03 10:12:30;;;;;;;3.35;2.90;;;;;;;;;;6080372;23;20025;-83
2023/02/03 10:53:24;;;;;;;3.50;2.88;;;;;;;;;;6123981;23;20104;-84
2023/02/03 10:55:59;;;;;;;5.05;3.33;;;;;;;;;;6079085;23;20037;-84
2023/02/03 10:58:27;;;;;;;3.60;3.15;;;;;;;;;;6079354;23;20021;-84
2023/02/03 11:01:03;;;;;;;3.80;3.40;;;;;;;;;;6045168;23;20018;-84
2023/02/03 11:03:33;;;;;;;4.15;3.83;;;;;;;;;;6069409;23;20467;-84
2023/02/03 11:06:09;;;;;;;6.07;3.58;;;;;;;;;;6095360;23;20026;-84
2023/02/03 11:08:40;;;;;;;4.18;3.55;;;;;;;;;;6069619;23;20029;-84
2023/02/03 11:11:09;;;;;;;10.38;3.50;;;;;;;;;;6104480;23;20017;-83
2023/02/03 11:13:39;;;;;;;5.35;4.22;;;;;;;;;;6102478;23;20355;-83
2023/02/03 11:16:14;;;;;;;6.35;5.28;;;;;;;;;;6069430;23;20025;-84
2023/02/03 11:18:45;;;;;;;4.03;3.57;;;;;;;;;;6078724;23;20018;-84
2023/02/03 11:21:28;;;;;;;4.03;3.25;;;;;;;;;;6068731;23;20269;-84
2023/02/03 11:24:07;;;;;;;7.20;3.28;;;;;;;;;;6043251;23;20031;-84
2023/02/03 11:26:37;;;;;;;4.85;3.72;;;;;;;;;;6103875;23;20011;-84
2023/02/03 11:29:13;;;;;;;4.28;3.50;;;;;;;;;;6044721;23;20022;-84
2023/02/03 11:31:47;;;;;;;4.18;3.50;;;;;;;;;;6078244;23;20018;-83
2023/02/03 11:34:18;;;;;;;3.33;2.95;;;;;;;;;;6064939;23;20030;-83
2023/02/03 11:36:46;;;;;;;5.93;4.45;;;;;;;;;;6092072;23;20015;-84
2023/02/03 11:39:28;;;;;;;6.75;5.93;;;;;;;;;;6069416;23;20029;-84
2023/02/03 11:41:56;;;;;;;3.28;2.80;;;;;;;;;;6077530;23;20021;-84
2023/02/03 11:44:28;;;;;;;2.88;2.33;;;;;;;;;;6069463;23;20018;-83
2023/02/03 11:46:57;;;;;;;2.85;2.40;;;;;;;;;;6102865;23;20014;-84
2023/02/03 11:49:49;;;;;;;2.75;2.08;;;;;;;;;;6103567;23;20018;-83
2023/02/03 11:52:43;;;;;;;;;;;;;;;;;;6072584;23;20460;-84
2023/02/03 11:55:22;;;;;;;3.05;2.20;;;;;;;;;;5988715;23;20092;-84
2023/02/03 11:57:58;;;;;;;3.00;1.77;;;;;;;;;;6074627;23;20026;-84
2023/02/03 12:00:32;;;;;;;2.90;2.13;;;;;;;;;;6072582;23;20041;-86
2023/02/03 12:03:22;;;;;;;3.40;2.30;;;;;;;;;;6039036;23;20033;-84
2023/02/03 12:06:02;;;;;;;4.85;2.10;;;;;;;;;;6049063;23;20018;-83
2023/02/03 12:08:40;;;;;;;4.10;2.97;;;;;;;;;;6039280;23;20015;-84
2023/02/03 12:11:19;;;;;;;3.25;2.10;;;;;;;;;;6072146;23;20011;-84
2023/02/03 12:50:36;;;;;;;2.88;1.20;;;;;;;;;;6130481;23;20029;-93
2023/02/03 12:59:40;;;;;;;1.70;1.60;;;;;;;;;;6148173;23;20018;-92
2023/02/03 13:05:02;;;;;;;1.33;1.05;;;;;;;;;;6151259;23;20022;-93
2023/02/03 13:13:50;;;;;;;1.55;1.20;;;;;;;;;;6106604;23;20017;-92
2023/02/03 13:20:08;;;;;;;1.67;1.42;;;;;;;;;;6152271;23;20044;-93
2023/02/03 13:39:48;;;;;;;2.80;1.20;;;;;;;;;;6121325;23;20021;-92
2023/02/03 14:01:53;;;;;;;1.98;0.75;;;;;;;;;;6148767;23;20021;-92
2023/02/03 16:15:29;;;;;;;3.40;1.83;;;;;;;;;;6081354;23;20491;-90
2023/02/03 16:19:33;;;;;;;2.00;1.60;;;;;;;;;;6182527;23;20036;-88
2023/02/03 16:22:02;;;;;;;1.98;1.58;;;;;;;;;;6178928;23;20019;-87
2023/02/03 16:24:39;;;;;;;2.45;1.88;;;;;;;;;;6220466;23;20357;-87
2023/02/03 16:27:31;;;;;;;1.90;1.70;;;;;;;;;;6189057;23;20024;-89
2023/02/03 16:53:03;;;;;;;1.90;1.63;;;;;;;;;;6193252;23;20360;-90
2023/02/03 16:55:35;;;;;;;1.67;1.58;;;;;;;;;;6191338;23;20044;-88
2023/02/03 16:58:10;;;;;;;2.50;1.80;;;;;;;;;;6190540;23;20475;-89
2023/02/03 17:00:40;;;;;;;2.40;2.00;;;;;;;;;;6217700;23;20017;-90
2023/02/03 17:03:13;;;;;;;2.03;1.70;;;;;;;;;;6192369;23;20252;-88
2023/02/03 17:05:47;;;;;;;2.58;2.20;;;;;;;;;;6191149;23;20023;-88
2023/02/03 17:08:18;;;;;;;2.00;1.80;;;;;;;;;;6218452;23;20020;-90
2023/02/03 17:10:48;;;;;;;2.65;2.25;;;;;;;;;;6228880;23;20036;-87
2023/02/03 17:13:16;;;;;;;1.98;1.83;;;;;;;;;;6190427;23;20019;-89
2023/02/03 17:15:51;;;;;;;2.60;1.70;;;;;;;;;;6186418;23;20053;-89
2023/02/03 17:18:19;;;;;;;1.65;1.55;;;;;;;;;;6212678;23;20352;-89
2023/02/03 17:20:48;;;;;;;2.28;1.90;;;;;;;;;;6186975;23;20031;-88
2023/02/03 17:23:18;;;;;;;2.42;1.88;;;;;;;;;;6221807;23;20020;-87
2023/02/03 17:25:48;;;;;;;1.92;1.63;;;;;;;;;;6188997;23;20501;-87
2023/02/03 17:28:15;;;;;;;6.65;2.20;;;;;;;;;;6213263;23;20016;-87
2023/02/03 17:30:56;;;;;;;2.75;1.95;;;;;;;;;;6188800;23;20079;-87
2023/02/03 17:33:26;;;;;;;2.60;1.98;;;;;;;;;;6190132;23;20013;-89
2023/02/03 17:36:02;;;;;;;2.05;1.80;;;;;;;;;;6212523;23;20044;-88
2023/02/03 17:38:30;;;;;;;2.13;1.75;;;;;;;;;;6187524;23;20024;-87
2023/02/03 17:40:58;;;;;;;2.67;1.88;;;;;;;;;;6211861;23;20043;-87
2023/02/03 17:43:32;;;;;;;3.17;2.35;;;;;;;;;;6188562;23;20025;-88
2023/02/03 17:46:00;;;;;;;2.53;2.30;;;;;;;;;;6188350;23;20029;-88
2023/02/03 17:48:28;;;;;;;2.78;2.00;;;;;;;;;;6189049;23;20020;-88
2023/02/03 17:50:55;;;;;;;3.95;2.15;;;;;;;;;;6187412;23;20016;-88
2023/02/03 17:53:24;;;;;;;3.47;2.88;;;;;;;;;;6190773;23;20020;-88
2023/02/03 17:55:54;;;;;;;2.47;1.98;;;;;;;;;;6188146;23;20031;-88
2023/02/03 17:58:22;;;;;;;2.38;2.17;;;;;;;;;;6189457;23;20032;-90
2023/02/03 18:00:54;;;;;;;2.25;1.90;;;;;;;;;;6213584;23;20024;-88
2023/02/03 18:03:29;;;;;;;3.88;2.17;;;;;;;;;;6191148;23;20027;-88
2023/02/03 18:06:03;;;;;;;2.47;2.28;;;;;;;;;;6187899;23;20032;-90
2023/02/03 18:08:32;;;;;;;2.60;2.40;;;;;;;;;;6189364;23;20024;-87
2023/02/03 18:11:03;;;;;;;2.67;2.15;;;;;;;;;;6188227;23;20016;-91
2023/02/03 18:13:32;;;;;;;2.25;2.05;;;;;;;;;;6214587;23;20013;-88
2023/02/03 18:16:02;;;;;;;1.80;1.65;;;;;;;;;;6214012;23;20025;-88
2023/02/03 18:18:33;;;;;;;2.75;2.20;;;;;;;;;;6215329;23;20016;-88
2023/02/03 18:21:03;;;;;;;2.75;2.55;;;;;;;;;;6188082;23;20023;-88
2023/02/03 18:23:34;;;;;;;2.28;2.00;;;;;;;;;;6188183;23;20364;-90
2023/02/03 18:29:45;;;;;;;2.55;1.95;;;;;;;;;;6204651;23;20024;-85
2023/02/03 18:32:13;;;;;;;2.72;2.42;;;;;;;;;;6160914;23;20360;-84
2023/02/03 18:34:43;;;;;;;2.30;1.85;;;;;;;;;;6212585;23;20019;-84
2023/02/03 18:37:11;;;;;;;3.00;2.40;;;;;;;;;;6212752;23;20013;-85
2023/02/03 18:39:44;;;;;;;2.17;1.87;;;;;;;;;;6193848;23;20012;-84
2023/02/03 18:42:11;;;;;;;2.85;2.00;;;;;;;;;;6213075;23;20012;-84
2023/02/03 18:44:40;;;;;;;3.47;2.50;;;;;;;;;;6182704;23;20021;-85
2023/02/03 18:47:07;;;;;;;2.53;2.33;;;;;;;;;;6204520;23;20209;-84
2023/02/03 18:49:35;;;;;;;3.05;2.38;;;;;;;;;;6202259;23;20016;-85
2023/02/03 18:52:04;;;;;;;2.60;2.33;;;;;;;;;;6214063;23;20024;-84
2023/02/03 18:54:31;;;;;;;3.25;2.58;;;;;;;;;;6202732;23;20019;-84
2023/02/03 18:57:01;;;;;;;2.40;2.03;;;;;;;;;;6205079;23;20021;-84
2023/02/03 18:59:30;;;;;;;3.00;2.80;;;;;;;;;;6213148;23;20009;-85
2023/02/03 19:01:58;;;;;;;4.55;2.95;;;;;;;;;;6203914;23;20017;-84
2023/02/03 19:04:25;;;;;;;3.35;3.05;;;;;;;;;;6210008;23;20020;-85
2023/02/03 19:06:57;;;;;;;3.13;2.50;;;;;;;;;;6202860;23;20024;-84
2023/02/03 19:09:24;;;;;;;3.13;2.83;;;;;;;;;;6203084;23;20020;-84
2023/02/03 19:11:57;;;;;;;2.83;2.63;;;;;;;;;;6214339;23;20016;-84
2023/02/03 19:14:28;;;;;;;3.80;3.03;;;;;;;;;;6178325;23;20019;-84
2023/02/03 19:16:56;;;;;;;2.53;2.08;;;;;;;;;;6177546;23;20021;-84
2023/02/03 19:19:25;;;;;;;4.40;2.90;;;;;;;;;;6178275;23;20020;-84
2023/02/03 19:21:53;;;;;;;5.10;3.95;;;;;;;;;;6177068;23;20370;-85
2023/02/03 19:24:20;;;;;;;2.25;2.05;;;;;;;;;;6177960;23;20013;-84
2023/02/03 19:26:50;;;;;;;3.28;2.55;;;;;;;;;;6203882;23;20024;-85
2023/02/03 19:29:17;;;;;;;2.78;2.55;;;;;;;;;;6175300;23;20025;-84
2023/02/03 19:31:45;;;;;;;2.47;2.10;;;;;;;;;;6204198;23;20025;-85
2023/02/03 19:34:14;;;;;;;14.80;2.53;;;;;;;;;;6177210;23;20009;-84
2023/02/03 19:36:42;;;;;;;3.38;2.63;;;;;;;;;;6177528;23;20472;-84
2023/02/03 19:39:12;;;;;;;7.47;5.35;;;;;;;;;;6178057;23;20514;-84
2023/02/03 19:41:39;;;;;;;2.90;2.40;;;;;;;;;;6205519;23;20020;-84
2023/02/03 19:44:07;;;;;;;2.83;2.15;;;;;;;;;;6154820;23;20019;-84
2023/02/03 19:46:37;;;;;;;3.42;2.00;;;;;;;;;;6179080;23;20046;-84
2023/02/03 19:49:09;;;;;;;3.90;3.38;;;;;;;;;;6204798;23;20436;-84
2023/02/03 19:51:37;;;;;;;2.42;2.22;;;;;;;;;;6190424;23;20027;-84
2023/02/03 19:54:04;;;;;;;2.10;1.67;;;;;;;;;;6178474;23;20016;-84
2023/02/03 19:56:34;;;;;;;3.35;2.42;;;;;;;;;;6155227;23;20029;-84